createdAt,value
2018-03-15T00:00:37.641Z,99.61
2018-03-15T00:01:37.567Z,99.61
2018-03-15T00:02:37.476Z,99.42
2018-03-15T00:03:37.402Z,99.33
2018-03-15T00:04:37.315Z,97.44
2018-03-15T00:05:37.240Z,93.56
2018-03-15T00:06:37.149Z,92.71
2018-03-15T00:07:37.073Z,91.86
2018-03-15T00:08:36.987Z,91.29
2018-03-15T00:09:36.909Z,90.91
2018-03-15T00:10:36.818Z,90.82
2018-03-15T00:11:36.742Z,90.06
2018-03-15T00:12:36.653Z,90.44
2018-03-15T00:13:36.579Z,91.20
2018-03-15T00:14:36.486Z,92.80
2018-03-15T00:15:36.414Z,93.18
2018-03-15T00:16:36.324Z,95.45
2018-03-15T00:17:36.247Z,96.21
2018-03-15T00:18:36.157Z,96.11
2018-03-15T00:19:36.084Z,94.41
2018-03-15T00:20:35.994Z,92.76
2018-03-15T00:21:35.918Z,91.77
2018-03-15T00:22:35.827Z,91.77
2018-03-15T00:23:35.752Z,91.25
2018-03-15T00:24:35.659Z,91.25
2018-03-15T00:25:35.584Z,92.80
2018-03-15T00:26:35.496Z,93.99
2018-03-15T00:27:35.422Z,95.03
2018-03-15T00:28:35.334Z,95.92
2018-03-15T00:29:35.258Z,96.49
2018-03-15T00:30:35.165Z,96.59
2018-03-15T00:31:35.094Z,96.73
2018-03-15T00:32:35.003Z,94.65
2018-03-15T00:33:34.926Z,93.42
2018-03-15T00:34:34.835Z,93.37
2018-03-15T00:35:34.763Z,94.18
2018-03-15T00:36:34.674Z,94.46
2018-03-15T00:37:34.596Z,95.21
2018-03-15T00:38:34.505Z,95.21
2018-03-15T00:39:34.449Z,94.56
2018-03-15T00:40:34.341Z,94.18
2018-03-15T00:41:34.266Z,94.65
2018-03-15T00:42:34.180Z,95.40
2018-03-15T00:43:34.102Z,96.63
2018-03-15T00:44:34.013Z,97.10
2018-03-15T00:45:33.937Z,97.58
2018-03-15T00:46:33.847Z,98.05
2018-03-15T00:47:33.768Z,98.14
2018-03-15T00:48:33.679Z,97.96
2018-03-15T00:49:33.605Z,97.39
2018-03-15T00:50:33.512Z,97.29
2018-03-15T00:51:33.442Z,97.58
2018-03-15T00:52:33.350Z,95.21
2018-03-15T00:53:33.323Z,93.61
2018-03-15T00:54:33.182Z,92.76
2018-03-15T00:55:33.111Z,92.47
2018-03-15T00:56:33.017Z,93.51
2018-03-15T00:57:32.945Z,93.89
2018-03-15T00:58:32.854Z,93.13
2018-03-15T00:59:32.774Z,92.85
2018-03-15T01:00:32.688Z,92.29
2018-03-15T01:01:32.614Z,93.04
2018-03-15T01:02:32.521Z,94.27
2018-03-15T01:03:32.449Z,95.40
2018-03-15T01:04:32.357Z,94.84
2018-03-15T01:05:32.285Z,95.03
2018-03-15T01:06:32.190Z,95.12
2018-03-15T01:07:32.116Z,95.31
2018-03-15T01:08:32.027Z,95.97
2018-03-15T01:09:31.949Z,96.25
2018-03-15T01:10:31.861Z,97.58
2018-03-15T01:11:31.786Z,97.01
2018-03-15T01:12:31.693Z,97.67
2018-03-15T01:13:31.623Z,97.58
2018-03-15T01:14:31.524Z,97.67
2018-03-15T01:15:31.454Z,97.77
2018-03-15T01:16:31.363Z,97.86
2018-03-15T01:17:31.290Z,97.77
2018-03-15T01:18:31.200Z,97.39
2018-03-15T01:19:31.121Z,96.54
2018-03-15T01:20:31.030Z,96.06
2018-03-15T01:21:30.958Z,96.16
2018-03-15T01:22:30.864Z,96.82
2018-03-15T01:23:30.793Z,97.39
2018-03-15T01:24:30.701Z,97.10
2018-03-15T01:25:30.621Z,97.39
2018-03-15T01:26:30.535Z,97.29
2018-03-15T01:27:30.458Z,97.77
2018-03-15T01:28:30.368Z,97.67
2018-03-15T01:29:30.293Z,97.58
2018-03-15T01:30:30.202Z,97.58
2018-03-15T01:31:30.130Z,97.86
2018-03-15T01:32:30.037Z,98.24
2018-03-15T01:33:29.962Z,98.71
2018-03-15T01:34:29.871Z,98.52
2018-03-15T01:35:29.795Z,98.43
2018-03-15T01:36:29.708Z,98.43
2018-03-15T01:37:29.632Z,97.39
2018-03-15T01:38:29.540Z,95.03
2018-03-15T01:39:29.465Z,92.94
2018-03-15T01:40:29.374Z,92.66
2018-03-15T01:41:29.302Z,92.00
2018-03-15T01:42:29.210Z,91.91
2018-03-15T01:43:29.133Z,92.66
2018-03-15T01:44:29.042Z,93.13
2018-03-15T01:45:28.970Z,92.94
2018-03-15T01:46:28.879Z,93.51
2018-03-15T01:47:28.802Z,93.99
2018-03-15T01:48:28.712Z,94.08
2018-03-15T01:49:28.645Z,94.74
2018-03-15T01:50:28.546Z,95.31
2018-03-15T01:51:28.471Z,95.59
2018-03-15T01:52:28.381Z,95.87
2018-03-15T01:53:28.307Z,95.59
2018-03-15T01:54:28.212Z,95.40
2018-03-15T01:55:28.142Z,95.21
2018-03-15T01:56:28.049Z,94.56
2018-03-15T01:57:27.977Z,93.13
2018-03-15T01:58:27.885Z,92.29
2018-03-15T01:59:27.805Z,92.00
2018-03-15T02:00:27.717Z,92.57
2018-03-15T02:01:28.637Z,93.13
2018-03-15T02:02:27.550Z,93.61
2018-03-15T02:03:27.477Z,93.23
2018-03-15T02:04:27.384Z,92.76
2018-03-15T02:05:27.310Z,92.57
2018-03-15T02:06:27.218Z,93.13
2018-03-15T02:07:27.136Z,93.80
2018-03-15T02:08:27.052Z,95.59
2018-03-15T02:09:26.979Z,96.35
2018-03-15T02:10:26.892Z,96.73
2018-03-15T02:11:26.811Z,97.48
2018-03-15T02:12:26.720Z,97.67
2018-03-15T02:13:26.652Z,98.61
2018-03-15T02:14:26.558Z,98.61
2018-03-15T02:15:26.480Z,98.80
2018-03-15T02:16:26.389Z,99.65
2018-03-15T02:17:26.314Z,98.61
2018-03-15T02:18:26.223Z,98.71
2018-03-15T02:19:26.144Z,97.48
2018-03-15T02:20:26.055Z,97.39
2018-03-15T02:21:25.991Z,97.96
2018-03-15T02:22:25.889Z,97.96
2018-03-15T02:23:25.813Z,97.58
2018-03-15T02:24:25.724Z,97.48
2018-03-15T02:25:25.646Z,97.29
2018-03-15T02:26:25.558Z,97.29
2018-03-15T02:27:25.483Z,96.91
2018-03-15T02:28:25.389Z,97.39
2018-03-15T02:29:25.331Z,97.58
2018-03-15T02:30:25.225Z,97.29
2018-03-15T02:31:25.150Z,97.96
2018-03-15T02:32:25.056Z,97.20
2018-03-15T02:33:24.986Z,97.39
2018-03-15T02:34:24.892Z,97.58
2018-03-15T02:35:24.820Z,97.48
2018-03-15T02:36:24.728Z,97.58
2018-03-15T02:37:24.651Z,97.20
2018-03-15T02:38:24.561Z,97.39
2018-03-15T02:39:24.490Z,97.77
2018-03-15T02:40:24.392Z,97.29
2018-03-15T02:41:24.318Z,96.25
2018-03-15T02:42:24.229Z,94.56
2018-03-15T02:43:24.154Z,94.18
2018-03-15T02:44:24.063Z,94.27
2018-03-15T02:45:23.988Z,94.56
2018-03-15T02:46:23.904Z,95.50
2018-03-15T02:47:23.819Z,95.50
2018-03-15T02:48:23.730Z,95.87
2018-03-15T02:49:23.654Z,95.78
2018-03-15T02:50:23.564Z,96.06
2018-03-15T02:51:23.490Z,96.82
2018-03-15T02:52:23.396Z,96.91
2018-03-15T02:53:23.320Z,96.25
2018-03-15T02:54:23.238Z,96.63
2018-03-15T02:55:23.154Z,96.54
2018-03-15T02:56:23.065Z,96.44
2018-03-15T02:57:22.990Z,95.21
2018-03-15T02:58:22.900Z,94.65
2018-03-15T02:59:22.823Z,94.18
2018-03-15T03:00:22.731Z,93.13
2018-03-15T03:01:22.658Z,93.04
2018-03-15T03:02:22.570Z,93.99
2018-03-15T03:03:22.492Z,94.65
2018-03-15T03:04:22.398Z,95.03
2018-03-15T03:05:22.326Z,95.50
2018-03-15T03:06:22.236Z,95.59
2018-03-15T03:07:22.158Z,95.87
2018-03-15T03:08:22.066Z,96.16
2018-03-15T03:09:21.988Z,95.59
2018-03-15T03:10:21.903Z,95.50
2018-03-15T03:11:21.824Z,95.12
2018-03-15T03:12:21.731Z,95.21
2018-03-15T03:13:21.661Z,94.93
2018-03-15T03:14:21.567Z,94.93
2018-03-15T03:15:21.490Z,94.93
2018-03-15T03:16:21.400Z,95.40
2018-03-15T03:17:21.324Z,95.31
2018-03-15T03:18:21.235Z,95.40
2018-03-15T03:19:21.160Z,95.21
2018-03-15T03:20:21.076Z,95.21
2018-03-15T03:21:20.995Z,95.21
2018-03-15T03:22:20.901Z,95.03
2018-03-15T03:23:20.825Z,95.40
2018-03-15T03:24:20.734Z,93.61
2018-03-15T03:25:20.659Z,92.29
2018-03-15T03:26:20.566Z,91.91
2018-03-15T03:27:20.494Z,91.91
2018-03-15T03:28:20.403Z,91.63
2018-03-15T03:29:20.328Z,92.43
2018-03-15T03:30:20.236Z,92.99
2018-03-15T03:31:20.168Z,93.47
2018-03-15T03:32:20.068Z,94.13
2018-03-15T03:33:19.994Z,94.79
2018-03-15T03:34:19.904Z,95.45
2018-03-15T03:35:19.828Z,95.50
2018-03-15T03:36:19.737Z,95.45
2018-03-15T03:37:19.661Z,95.17
2018-03-15T03:38:19.574Z,95.36
2018-03-15T03:39:19.495Z,95.45
2018-03-15T03:40:19.404Z,95.45
2018-03-15T03:41:19.324Z,95.92
2018-03-15T03:42:19.234Z,97.43
2018-03-15T03:43:19.160Z,98.10
2018-03-15T03:44:19.072Z,97.15
2018-03-15T03:45:18.995Z,97.53
2018-03-15T03:46:18.901Z,98.28
2018-03-15T03:47:18.826Z,98.19
2018-03-15T03:48:18.738Z,98.19
2018-03-15T03:49:18.662Z,98.66
2018-03-15T03:50:18.567Z,98.66
2018-03-15T03:51:18.494Z,98.85
2018-03-15T03:52:18.402Z,98.85
2018-03-15T03:53:18.326Z,98.66
2018-03-15T03:54:18.236Z,98.57
2018-03-15T03:55:18.162Z,98.57
2018-03-15T03:56:18.070Z,98.75
2018-03-15T03:57:17.994Z,98.57
2018-03-15T03:58:17.903Z,98.66
2018-03-15T03:59:17.829Z,98.10
2018-03-15T04:00:17.739Z,97.72
2018-03-15T04:01:17.662Z,96.11
2018-03-15T04:02:17.567Z,95.45
2018-03-15T04:03:17.543Z,95.64
2018-03-15T04:04:17.401Z,95.92
2018-03-15T04:05:17.328Z,96.01
2018-03-15T04:06:17.237Z,96.11
2018-03-15T04:07:17.160Z,96.01
2018-03-15T04:08:17.103Z,96.01
2018-03-15T04:09:16.995Z,96.86
2018-03-15T04:10:16.899Z,96.86
2018-03-15T04:11:16.827Z,97.53
2018-03-15T04:12:16.735Z,97.24
2018-03-15T04:13:16.659Z,97.72
2018-03-15T04:14:16.566Z,97.34
2018-03-15T04:15:16.490Z,97.53
2018-03-15T04:16:16.404Z,97.15
2018-03-15T04:17:16.324Z,97.34
2018-03-15T04:18:16.232Z,97.24
2018-03-15T04:19:16.160Z,97.62
2018-03-15T04:20:16.068Z,97.72
2018-03-15T04:21:15.991Z,97.81
2018-03-15T04:22:15.901Z,97.62
2018-03-15T04:23:15.827Z,97.81
2018-03-15T04:24:15.730Z,98.00
2018-03-15T04:25:15.656Z,97.62
2018-03-15T04:26:15.563Z,97.81
2018-03-15T04:27:15.492Z,98.57
2018-03-15T04:28:15.401Z,98.28
2018-03-15T04:29:15.320Z,98.00
2018-03-15T04:30:15.231Z,98.10
2018-03-15T04:31:15.155Z,98.57
2018-03-15T04:32:15.066Z,98.38
2018-03-15T04:33:14.987Z,97.72
2018-03-15T04:34:14.896Z,96.96
2018-03-15T04:35:14.825Z,96.11
2018-03-15T04:36:14.735Z,96.11
2018-03-15T04:37:14.659Z,96.20
2018-03-15T04:38:14.562Z,96.01
2018-03-15T04:39:14.492Z,96.86
2018-03-15T04:40:14.396Z,96.49
2018-03-15T04:41:14.320Z,97.24
2018-03-15T04:42:14.226Z,97.81
2018-03-15T04:43:14.172Z,97.62
2018-03-15T04:44:14.065Z,98.38
2018-03-15T04:45:14.078Z,98.75
2018-03-15T04:46:13.897Z,99.41
2018-03-15T04:47:13.822Z,99.04
2018-03-15T04:48:13.732Z,99.70
2018-03-15T04:49:15.744Z,99.41
2018-03-15T04:50:13.560Z,99.60
2018-03-15T04:51:15.557Z,99.32
2018-03-15T04:52:13.393Z,99.70
2018-03-15T04:53:13.414Z,99.98
2018-03-15T04:54:13.226Z,99.88
2018-03-15T04:55:13.222Z,99.99
2018-03-15T04:56:13.056Z,99.70
2018-03-15T04:57:12.983Z,99.70
2018-03-15T04:58:12.897Z,99.41
2018-03-15T04:59:12.835Z,98.47
2018-03-15T05:00:12.724Z,97.53
2018-03-15T05:01:12.754Z,97.15
2018-03-15T05:02:12.609Z,97.34
2018-03-15T05:03:12.576Z,96.01
2018-03-15T05:04:12.391Z,94.32
2018-03-15T05:05:12.364Z,92.52
2018-03-15T05:06:12.223Z,91.67
2018-03-15T05:07:12.173Z,91.67
2018-03-15T05:08:12.054Z,92.52
2018-03-15T05:09:12.086Z,94.13
2018-03-15T05:10:11.886Z,95.26
2018-03-15T05:11:11.895Z,95.36
2018-03-15T05:12:11.727Z,96.01
2018-03-15T05:13:11.703Z,96.77
2018-03-15T05:14:11.552Z,97.34
2018-03-15T05:15:11.509Z,96.86
2018-03-15T05:16:11.385Z,97.62
2018-03-15T05:17:11.414Z,98.00
2018-03-15T05:18:11.234Z,97.53
2018-03-15T05:19:11.226Z,97.05
2018-03-15T05:20:11.053Z,97.53
2018-03-15T05:21:11.037Z,97.53
2018-03-15T05:22:10.883Z,97.24
2018-03-15T05:23:10.844Z,96.96
2018-03-15T05:24:10.716Z,97.34
2018-03-15T05:25:10.684Z,96.86
2018-03-15T05:26:10.552Z,97.05
2018-03-15T05:27:10.563Z,96.58
2018-03-15T05:28:10.391Z,96.01
2018-03-15T05:29:10.309Z,96.20
2018-03-15T05:30:10.215Z,96.30
2018-03-15T05:31:10.166Z,95.92
2018-03-15T05:32:10.055Z,96.01
2018-03-15T05:33:09.970Z,96.20
2018-03-15T05:34:09.886Z,96.77
2018-03-15T05:35:10.810Z,96.68
2018-03-15T05:36:09.714Z,96.49
2018-03-15T05:37:09.637Z,96.20
2018-03-15T05:38:09.546Z,96.58
2018-03-15T05:39:09.515Z,96.86
2018-03-15T05:40:09.376Z,97.15
2018-03-15T05:41:09.327Z,96.96
2018-03-15T05:42:09.206Z,96.20
2018-03-15T05:43:09.236Z,95.17
2018-03-15T05:44:09.043Z,95.45
2018-03-15T05:45:09.042Z,95.64
2018-03-15T05:46:08.876Z,95.92
2018-03-15T05:47:08.854Z,96.20
2018-03-15T05:48:08.713Z,96.01
2018-03-15T05:49:08.659Z,95.92
2018-03-15T05:50:08.541Z,95.92
2018-03-15T05:51:08.571Z,95.92
2018-03-15T05:52:08.378Z,96.01
2018-03-15T05:53:08.376Z,96.30
2018-03-15T05:54:08.206Z,96.77
2018-03-15T05:55:08.127Z,96.68
2018-03-15T05:56:08.040Z,96.86
2018-03-15T05:57:07.964Z,97.24
2018-03-15T05:58:07.875Z,97.34
2018-03-15T05:59:07.797Z,96.77
2018-03-15T06:00:07.705Z,96.11
2018-03-15T06:01:07.632Z,96.11
2018-03-15T06:02:07.538Z,95.83
2018-03-15T06:03:07.458Z,95.92
2018-03-15T06:04:07.369Z,96.49
2018-03-15T06:05:07.295Z,96.49
2018-03-15T06:06:07.206Z,97.24
2018-03-15T06:07:07.126Z,97.53
2018-03-15T06:08:07.037Z,97.72
2018-03-15T06:09:07.052Z,98.57
2018-03-15T06:10:06.869Z,98.85
2018-03-15T06:11:06.794Z,98.75
2018-03-15T06:12:06.705Z,98.85
2018-03-15T06:13:06.666Z,98.66
2018-03-15T06:14:06.533Z,98.28
2018-03-15T06:15:06.458Z,98.28
2018-03-15T06:16:06.364Z,97.81
2018-03-15T06:17:06.291Z,98.38
2018-03-15T06:18:06.202Z,98.85
2018-03-15T06:19:06.123Z,98.28
2018-03-15T06:20:06.030Z,98.75
2018-03-15T06:21:05.958Z,99.51
2018-03-15T06:22:05.863Z,99.41
2018-03-15T06:23:05.788Z,99.60
2018-03-15T06:24:05.699Z,99.51
2018-03-15T06:25:05.621Z,99.32
2018-03-15T06:26:05.531Z,99.41
2018-03-15T06:27:05.488Z,99.79
2018-03-15T06:28:05.360Z,99.70
2018-03-15T06:29:05.284Z,99.51
2018-03-15T06:30:05.194Z,99.79
2018-03-15T06:31:05.119Z,99.99
2018-03-15T06:32:05.026Z,99.99
2018-03-15T06:33:04.953Z,99.99
2018-03-15T06:34:04.912Z,99.99
2018-03-15T06:35:04.786Z,99.99
2018-03-15T06:36:04.697Z,99.99
2018-03-15T06:37:04.618Z,99.99
2018-03-15T06:38:04.525Z,99.99
2018-03-15T06:39:04.449Z,99.99
2018-03-15T06:40:04.359Z,99.99
2018-03-15T06:41:04.287Z,99.99
2018-03-15T06:42:04.192Z,99.99
2018-03-15T06:43:04.116Z,99.99
2018-03-15T06:44:04.025Z,99.99
2018-03-15T06:45:03.950Z,99.99
2018-03-15T06:46:03.856Z,99.99
2018-03-15T06:47:03.782Z,99.99
2018-03-15T06:48:03.691Z,99.99
2018-03-15T06:49:03.616Z,99.99
2018-03-15T06:50:03.527Z,99.99
2018-03-15T06:51:03.448Z,99.99
2018-03-15T06:52:03.357Z,99.99
2018-03-15T06:53:03.286Z,99.99
2018-03-15T06:54:03.198Z,99.99
2018-03-15T06:55:03.112Z,99.99
2018-03-15T06:56:03.024Z,99.99
2018-03-15T06:57:02.952Z,99.99
2018-03-15T06:58:02.854Z,99.99
2018-03-15T06:59:02.780Z,99.99
2018-03-15T07:00:02.692Z,99.99
2018-03-15T07:01:02.615Z,99.99
2018-03-15T07:02:02.528Z,99.99
2018-03-15T07:03:02.486Z,99.99
2018-03-15T07:04:02.357Z,99.99
2018-03-15T07:05:02.283Z,99.99
2018-03-15T07:06:02.191Z,99.99
2018-03-15T07:07:02.119Z,99.99
2018-03-15T07:08:02.026Z,99.99
2018-03-15T07:09:01.951Z,99.99
2018-03-15T07:10:01.871Z,99.99
2018-03-15T07:11:01.784Z,99.99
2018-03-15T07:12:01.695Z,99.99
2018-03-15T07:13:01.619Z,99.99
2018-03-15T07:14:01.530Z,99.99
2018-03-15T07:15:01.451Z,99.99
2018-03-15T07:16:01.361Z,99.99
2018-03-15T07:17:01.288Z,99.99
2018-03-15T07:18:01.195Z,99.99
2018-03-15T07:19:01.121Z,99.99
2018-03-15T07:20:01.031Z,99.99
2018-03-15T07:21:00.956Z,99.99
2018-03-15T07:22:00.864Z,99.99
2018-03-15T07:23:00.789Z,99.99
2018-03-15T07:24:00.698Z,99.99
2018-03-15T07:25:00.625Z,99.99
2018-03-15T07:26:00.533Z,99.99
2018-03-15T07:27:00.458Z,99.99
2018-03-15T07:28:00.368Z,99.99
2018-03-15T07:29:00.294Z,99.99
2018-03-15T07:30:00.205Z,99.99
2018-03-15T07:31:00.129Z,99.99
2018-03-15T07:32:00.041Z,99.99
2018-03-15T07:32:59.964Z,99.99
2018-03-15T07:33:59.876Z,99.99
2018-03-15T07:34:59.799Z,99.99
2018-03-15T07:35:59.719Z,99.99
2018-03-15T07:36:59.639Z,99.99
2018-03-15T07:37:59.545Z,99.99
2018-03-15T07:38:59.482Z,99.99
2018-03-15T07:39:59.379Z,99.99
2018-03-15T07:40:59.347Z,99.99
2018-03-15T07:41:59.220Z,99.81
2018-03-15T07:42:59.144Z,99.71
2018-03-15T07:43:59.054Z,98.86
2018-03-15T07:44:58.980Z,98.68
2018-03-15T07:45:58.892Z,97.92
2018-03-15T07:46:58.819Z,97.54
2018-03-15T07:47:58.729Z,97.68
2018-03-15T07:48:58.655Z,97.21
2018-03-15T07:49:58.563Z,95.69
2018-03-15T07:50:58.510Z,95.50
2018-03-15T07:51:58.402Z,94.65
2018-03-15T07:52:58.328Z,94.23
2018-03-15T07:53:58.240Z,94.42
2018-03-15T07:54:58.229Z,93.56
2018-03-15T07:55:58.113Z,93.37
2018-03-15T07:56:58.046Z,92.80
2018-03-15T07:57:57.919Z,92.18
2018-03-15T07:58:57.948Z,92.38
2018-03-15T07:59:57.752Z,91.42
2018-03-15T08:00:57.758Z,90.76
2018-03-15T08:01:57.617Z,90.76
2018-03-15T08:02:57.565Z,90.86
2018-03-15T08:03:57.431Z,89.81
2018-03-15T08:04:57.370Z,89.34
2018-03-15T08:05:57.270Z,88.39
2018-03-15T08:06:57.282Z,88.01
2018-03-15T08:07:57.112Z,87.73
2018-03-15T08:08:57.090Z,87.30
2018-03-15T08:09:56.952Z,87.30
2018-03-15T08:10:56.899Z,87.01
2018-03-15T08:11:56.791Z,86.82
2018-03-15T08:12:56.810Z,84.74
2018-03-15T08:13:56.626Z,84.36
2018-03-15T08:14:56.620Z,84.59
2018-03-15T08:15:56.469Z,84.01
2018-03-15T08:16:56.427Z,83.73
2018-03-15T08:17:56.311Z,83.54
2018-03-15T08:18:56.335Z,83.36
2018-03-15T08:19:56.151Z,82.88
2018-03-15T08:20:56.145Z,83.64
2018-03-15T08:21:55.992Z,82.78
2018-03-15T08:22:55.954Z,81.45
2018-03-15T08:23:55.837Z,82.21
2018-03-15T08:24:55.866Z,81.55
2018-03-15T08:25:55.682Z,80.13
2018-03-15T08:26:55.672Z,79.65
2018-03-15T08:27:55.518Z,80.41
2018-03-15T08:28:55.477Z,80.41
2018-03-15T08:29:55.380Z,80.51
2018-03-15T08:30:55.394Z,79.46
2018-03-15T08:31:55.206Z,79.08
2018-03-15T08:32:55.201Z,79.55
2018-03-15T08:33:55.046Z,81.45
2018-03-15T08:34:54.975Z,80.60
2018-03-15T08:35:54.886Z,79.65
2018-03-15T08:36:54.919Z,78.61
2018-03-15T08:37:54.736Z,79.46
2018-03-15T08:38:54.780Z,79.36
2018-03-15T08:39:54.574Z,79.74
2018-03-15T08:40:54.538Z,79.41
2018-03-15T08:41:54.414Z,79.31
2018-03-15T08:42:54.442Z,78.55
2018-03-15T08:43:54.259Z,78.36
2018-03-15T08:44:54.255Z,78.64
2018-03-15T08:45:54.099Z,77.60
2018-03-15T08:46:54.063Z,77.51
2018-03-15T08:47:53.945Z,78.17
2018-03-15T08:48:53.974Z,77.41
2018-03-15T08:49:53.791Z,77.79
2018-03-15T08:50:53.784Z,78.17
2018-03-15T08:51:53.631Z,77.98
2018-03-15T08:52:53.597Z,77.22
2018-03-15T08:53:53.479Z,77.31
2018-03-15T08:54:53.406Z,75.70
2018-03-15T08:55:53.320Z,76.93
2018-03-15T08:56:53.312Z,76.78
2018-03-15T08:57:53.164Z,75.64
2018-03-15T08:58:53.120Z,75.04
2018-03-15T08:59:53.014Z,74.66
2018-03-15T09:00:53.034Z,74.56
2018-03-15T09:01:52.853Z,75.45
2018-03-15T09:02:52.873Z,75.07
2018-03-15T09:03:52.696Z,74.69
2018-03-15T09:04:52.806Z,74.60
2018-03-15T09:05:52.548Z,74.60
2018-03-15T09:06:52.556Z,74.41
2018-03-15T09:07:52.390Z,74.41
2018-03-15T09:08:52.418Z,74.79
2018-03-15T09:09:52.234Z,74.69
2018-03-15T09:10:52.181Z,74.69
2018-03-15T09:11:52.080Z,74.12
2018-03-15T09:12:52.085Z,73.99
2018-03-15T09:13:51.918Z,73.99
2018-03-15T09:14:51.895Z,74.18
2018-03-15T09:15:51.763Z,74.41
2018-03-15T09:16:51.806Z,74.79
2018-03-15T09:17:51.610Z,74.88
2018-03-15T09:18:51.622Z,74.22
2018-03-15T09:19:51.459Z,74.22
2018-03-15T09:20:51.422Z,73.27
2018-03-15T09:21:51.309Z,74.12
2018-03-15T09:22:51.331Z,73.93
2018-03-15T09:23:51.148Z,73.36
2018-03-15T09:24:51.141Z,73.52
2018-03-15T09:25:50.991Z,73.52
2018-03-15T09:26:50.950Z,73.71
2018-03-15T09:27:50.835Z,73.90
2018-03-15T09:28:50.866Z,74.75
2018-03-15T09:29:50.682Z,74.56
2018-03-15T09:30:50.672Z,74.18
2018-03-15T09:31:50.527Z,74.27
2018-03-15T09:32:50.477Z,74.66
2018-03-15T09:33:50.370Z,73.93
2018-03-15T09:34:50.384Z,73.84
2018-03-15T09:35:50.217Z,74.79
2018-03-15T09:36:50.193Z,74.27
2018-03-15T09:37:50.059Z,73.84
2018-03-15T09:38:50.005Z,73.08
2018-03-15T09:39:49.906Z,73.27
2018-03-15T09:40:49.836Z,72.41
2018-03-15T09:41:49.751Z,72.41
2018-03-15T09:42:49.722Z,73.18
2018-03-15T09:43:49.594Z,74.03
2018-03-15T09:44:49.636Z,74.16
2018-03-15T09:45:49.453Z,75.02
2018-03-15T09:46:49.442Z,72.55
2018-03-15T09:47:49.287Z,72.64
2018-03-15T09:48:49.254Z,71.59
2018-03-15T09:49:49.149Z,72.07
2018-03-15T09:50:49.168Z,71.53
2018-03-15T09:51:48.979Z,71.06
2018-03-15T09:52:48.969Z,70.97
2018-03-15T09:53:48.834Z,71.69
2018-03-15T09:54:48.777Z,71.82
2018-03-15T09:55:48.673Z,71.44
2018-03-15T09:56:48.684Z,71.02
2018-03-15T09:57:48.516Z,72.35
2018-03-15T09:58:48.499Z,72.35
2018-03-15T09:59:48.362Z,71.12
2018-03-15T10:00:48.307Z,71.22
2018-03-15T10:01:48.208Z,71.02
2018-03-15T10:02:48.216Z,72.26
2018-03-15T10:03:48.067Z,71.97
2018-03-15T10:04:48.025Z,71.69
2018-03-15T10:05:47.954Z,72.64
2018-03-15T10:06:47.937Z,72.39
2018-03-15T10:07:47.752Z,72.45
2018-03-15T10:08:47.746Z,72.11
2018-03-15T10:09:47.593Z,70.58
2018-03-15T10:10:47.554Z,69.88
2018-03-15T10:11:47.437Z,70.30
2018-03-15T10:12:48.388Z,70.68
2018-03-15T10:13:47.288Z,70.01
2018-03-15T10:14:49.324Z,69.44
2018-03-15T10:15:47.137Z,69.54
2018-03-15T10:16:49.132Z,70.58
2018-03-15T10:17:46.979Z,70.97
2018-03-15T10:18:46.993Z,71.06
2018-03-15T10:19:46.828Z,71.15
2018-03-15T10:20:46.801Z,70.20
2018-03-15T10:21:46.722Z,70.58
2018-03-15T10:22:46.715Z,70.77
2018-03-15T10:23:46.526Z,70.77
2018-03-15T10:24:46.522Z,69.15
2018-03-15T10:25:46.368Z,69.54
2018-03-15T10:26:46.327Z,69.25
2018-03-15T10:27:46.212Z,68.77
2018-03-15T10:28:46.150Z,68.30
2018-03-15T10:29:46.059Z,68.68
2018-03-15T10:30:46.046Z,68.77
2018-03-15T10:31:45.911Z,69.15
2018-03-15T10:32:45.862Z,69.06
2018-03-15T10:33:45.758Z,68.59
2018-03-15T10:34:45.782Z,68.87
2018-03-15T10:35:45.608Z,68.81
2018-03-15T10:36:45.577Z,68.52
2018-03-15T10:37:45.451Z,68.24
2018-03-15T10:38:45.487Z,67.95
2018-03-15T10:39:45.305Z,67.57
2018-03-15T10:40:45.292Z,67.67
2018-03-15T10:41:45.154Z,68.05
2018-03-15T10:42:45.101Z,68.62
2018-03-15T10:43:45.009Z,69.67
2018-03-15T10:44:45.010Z,68.62
2018-03-15T10:45:44.847Z,70.05
2018-03-15T10:46:44.819Z,69.60
2018-03-15T10:47:44.695Z,69.51
2018-03-15T10:48:44.733Z,69.60
2018-03-15T10:49:44.546Z,69.51
2018-03-15T10:50:44.548Z,70.27
2018-03-15T10:51:44.392Z,71.03
2018-03-15T10:52:44.349Z,69.42
2018-03-15T10:53:44.238Z,69.23
2018-03-15T10:54:44.172Z,69.51
2018-03-15T10:55:44.088Z,69.38
2018-03-15T10:56:44.071Z,70.33
2018-03-15T10:57:43.939Z,70.14
2018-03-15T10:58:43.875Z,70.27
2018-03-15T10:59:43.785Z,69.57
2018-03-15T11:00:43.787Z,69.10
2018-03-15T11:01:43.633Z,68.90
2018-03-15T11:02:43.596Z,68.33
2018-03-15T11:03:43.479Z,69.10
2018-03-15T11:04:43.504Z,69.48
2018-03-15T11:05:43.333Z,69.48
2018-03-15T11:06:43.315Z,69.95
2018-03-15T11:07:43.177Z,69.38
2018-03-15T11:08:43.132Z,69.38
2018-03-15T11:09:43.026Z,68.56
2018-03-15T11:10:42.960Z,68.52
2018-03-15T11:11:42.877Z,69.60
2018-03-15T11:12:42.842Z,68.65
2018-03-15T11:13:42.725Z,68.46
2018-03-15T11:14:42.752Z,68.37
2018-03-15T11:15:42.575Z,68.18
2018-03-15T11:16:42.559Z,67.70
2018-03-15T11:17:42.421Z,66.46
2018-03-15T11:18:42.368Z,66.62
2018-03-15T11:19:42.276Z,67.22
2018-03-15T11:20:42.282Z,67.80
2018-03-15T11:21:42.119Z,67.32
2018-03-15T11:22:42.090Z,67.32
2018-03-15T11:23:41.981Z,65.80
2018-03-15T11:24:42.000Z,66.18
2018-03-15T11:25:41.818Z,66.94
2018-03-15T11:26:41.812Z,67.89
2018-03-15T11:27:41.667Z,67.89
2018-03-15T11:28:41.617Z,67.61
2018-03-15T11:29:41.523Z,66.94
2018-03-15T11:30:41.524Z,65.80
2018-03-15T11:31:41.364Z,65.89
2018-03-15T11:32:41.333Z,66.18
2018-03-15T11:33:41.218Z,66.88
2018-03-15T11:34:41.245Z,66.31
2018-03-15T11:35:41.063Z,66.31
2018-03-15T11:36:41.052Z,65.64
2018-03-15T11:37:40.916Z,64.40
2018-03-15T11:38:40.846Z,64.12
2018-03-15T11:39:40.763Z,65.36
2018-03-15T11:40:40.777Z,65.45
2018-03-15T11:41:40.610Z,65.83
2018-03-15T11:42:40.583Z,65.55
2018-03-15T11:43:40.459Z,64.31
2018-03-15T11:44:40.495Z,64.02
2018-03-15T11:45:40.310Z,65.36
2018-03-15T11:46:40.301Z,65.07
2018-03-15T11:47:40.161Z,64.81
2018-03-15T11:48:40.110Z,64.91
2018-03-15T11:49:40.008Z,64.81
2018-03-15T11:50:40.059Z,63.57
2018-03-15T11:51:39.860Z,64.05
2018-03-15T11:52:39.830Z,64.53
2018-03-15T11:53:39.709Z,63.96
2018-03-15T11:54:39.740Z,63.39
2018-03-15T11:55:39.560Z,62.91
2018-03-15T11:56:39.550Z,63.86
2018-03-15T11:57:39.409Z,64.15
2018-03-15T11:58:39.357Z,63.48
2018-03-15T11:59:39.265Z,63.57
2018-03-15T12:00:39.330Z,63.76
2018-03-15T12:01:39.142Z,62.81
2018-03-15T12:02:39.076Z,63.29
2018-03-15T12:03:38.958Z,64.15
2018-03-15T12:04:38.998Z,63.00
2018-03-15T12:05:38.819Z,63.48
2018-03-15T12:06:38.794Z,62.62
2018-03-15T12:07:38.702Z,62.05
2018-03-15T12:08:39.428Z,62.43
2018-03-15T12:09:38.514Z,62.05
2018-03-15T12:10:38.515Z,62.05
2018-03-15T12:11:38.362Z,63.20
2018-03-15T12:12:38.323Z,63.29
2018-03-15T12:13:38.217Z,61.67
2018-03-15T12:14:38.235Z,61.19
2018-03-15T12:15:38.064Z,61.48
2018-03-15T12:16:38.044Z,61.00
2018-03-15T12:17:37.914Z,61.10
2018-03-15T12:18:37.954Z,60.91
2018-03-15T12:19:37.766Z,60.62
2018-03-15T12:20:37.764Z,61.96
2018-03-15T12:21:37.616Z,62.27
2018-03-15T12:22:37.568Z,62.18
2018-03-15T12:23:37.469Z,60.84
2018-03-15T12:24:37.482Z,61.99
2018-03-15T12:25:37.316Z,61.60
2018-03-15T12:26:37.297Z,62.18
2018-03-15T12:27:37.166Z,62.84
2018-03-15T12:28:37.201Z,62.94
2018-03-15T12:29:37.020Z,62.46
2018-03-15T12:30:36.953Z,61.83
2018-03-15T12:31:36.873Z,62.21
2018-03-15T12:32:36.816Z,60.87
2018-03-15T12:33:36.718Z,60.97
2018-03-15T12:34:36.728Z,60.49
2018-03-15T12:35:36.573Z,60.87
2018-03-15T12:36:36.560Z,59.82
2018-03-15T12:37:36.423Z,59.25
2018-03-15T12:38:36.355Z,59.73
2018-03-15T12:39:36.276Z,59.34
2018-03-15T12:40:36.256Z,58.17
2018-03-15T12:41:36.127Z,59.53
2018-03-15T12:42:36.207Z,59.25
2018-03-15T12:43:35.982Z,57.41
2018-03-15T12:44:35.978Z,57.82
2018-03-15T12:45:35.828Z,58.77
2018-03-15T12:46:35.785Z,57.72
2018-03-15T12:47:35.684Z,58.97
2018-03-15T12:48:35.698Z,58.39
2018-03-15T12:49:35.546Z,57.53
2018-03-15T12:50:35.504Z,58.87
2018-03-15T12:51:35.388Z,58.39